Time;durP1;ratioP1;P1;durP2;ratioP2;P2;SDS_P1;SDS_P2;PMS_P1;PMS_P2;Temp;Humidity;BMP_temperature;BMP_pressure;BME280_temperature;BME280_humidity;BME280_pressure;Samples;Min_cycle;Max_cycle;Signal;HPM_P1;HPM_P2
2023/06/08 00:01:07;;;;;;;11.82;5.20;;;;;;;10.62;100.00;102107.94;6242578;23;20744;-77
2023/06/08 00:03:55;;;;;;;11.38;5.32;;;;;;;10.67;100.00;102120.16;6232064;23;20073;-78
2023/06/08 00:06:40;;;;;;;12.50;5.78;;;;;;;10.64;100.00;102109.66;6234865;23;20498;-77
2023/06/08 00:09:25;;;;;;;12.65;5.28;;;;;;;10.65;100.00;102114.03;6244533;23;20042;-77
2023/06/08 00:12:10;;;;;;;8.23;4.97;;;;;;;10.62;100.00;102111.44;6239864;23;20099;-79
2023/06/08 00:14:54;;;;;;;10.13;5.15;;;;;;;10.62;100.00;102102.66;6230356;23;20031;-78
2023/06/08 00:17:38;;;;;;;7.00;5.20;;;;;;;10.62;100.00;102105.31;6215526;23;20018;-78
2023/06/08 00:20:23;;;;;;;12.35;5.97;;;;;;;10.64;100.00;102104.34;6236633;23;20365;-78
2023/06/08 00:23:07;;;;;;;10.63;6.13;;;;;;;10.61;100.00;102107.06;6238583;23;20097;-78
2023/06/08 00:25:51;;;;;;;11.75;6.72;;;;;;;10.56;100.00;102108.94;6235944;23;20073;-78
2023/06/08 00:28:35;;;;;;;12.70;6.88;;;;;;;10.53;100.00;102096.69;6219423;23;20019;-81
2023/06/08 00:31:19;;;;;;;12.13;6.55;;;;;;;10.55;100.00;102109.88;6243877;23;20062;-78
2023/06/08 00:34:04;;;;;;;13.68;7.03;;;;;;;10.57;100.00;102105.41;6244060;23;20831;-78
2023/06/08 00:36:49;;;;;;;15.40;8.23;;;;;;;10.59;100.00;102106.25;6204777;23;20026;-78
2023/06/08 00:39:33;;;;;;;18.55;8.70;;;;;;;10.61;100.00;102106.22;6238758;23;20018;-78
2023/06/08 00:42:17;;;;;;;20.10;9.85;;;;;;;10.62;100.00;102102.66;6203900;23;20027;-77
2023/06/08 00:45:01;;;;;;;17.10;9.07;;;;;;;10.61;100.00;102101.78;6234680;23;20022;-77
2023/06/08 00:47:46;;;;;;;19.90;9.15;;;;;;;10.63;100.00;102101.75;6242605;23;20086;-78
2023/06/08 00:50:31;;;;;;;19.55;10.35;;;;;;;10.65;100.00;102099.91;6220319;23;20036;-78
2023/06/08 00:53:16;;;;;;;16.13;8.30;;;;;;;10.66;100.00;102094.59;6243055;23;20772;-79
2023/06/08 00:56:01;;;;;;;17.15;8.20;;;;;;;10.70;100.00;102095.38;6243458;23;20180;-78
2023/06/08 00:58:46;;;;;;;17.30;8.75;;;;;;;10.70;100.00;102093.59;6221768;23;20058;-79
2023/06/08 01:01:31;;;;;;;17.45;8.95;;;;;;;10.68;100.00;102095.41;6190207;23;20019;-78
2023/06/08 01:04:15;;;;;;;17.85;8.00;;;;;;;10.69;100.00;102085.69;6243169;23;20050;-78
2023/06/08 01:07:19;;;;;;;14.43;7.97;;;;;;;10.71;100.00;102090.03;6243895;23;20451;-78
2023/06/08 01:10:41;;;;;;;15.57;7.50;;;;;;;10.71;100.00;102079.44;6245192;23;20478;-78
2023/06/08 01:13:49;;;;;;;13.80;6.43;;;;;;;10.71;100.00;102083.84;6244338;23;20035;-77
2023/06/08 01:16:37;;;;;;;13.98;7.05;;;;;;;10.69;100.00;102078.59;6189310;23;20480;-78
2023/06/08 01:19:33;;;;;;;11.98;6.30;;;;;;;10.71;100.00;102074.16;6221531;23;20015;-80
2023/06/08 01:22:22;;;;;;;12.68;7.40;;;;;;;10.69;100.00;102072.44;6232586;23;20023;-78
2023/06/08 01:25:08;;;;;;;13.65;6.88;;;;;;;10.69;100.00;102075.94;6234074;23;20011;-77
2023/06/08 01:28:12;;;;;;;14.18;7.50;;;;;;;10.70;100.00;102080.38;6243377;23;20024;-78
2023/06/08 01:30:57;;;;;;;;;;;;;;;10.71;100.00;102081.22;6226369;23;20015;-78
2023/06/08 01:33:41;;;;;;;13.07;6.93;;;;;;;10.67;100.00;102077.78;6245596;23;19927;-77
2023/06/08 01:36:46;;;;;;;13.43;6.32;;;;;;;10.67;100.00;102080.44;6243756;23;20051;-78
2023/06/08 01:39:51;;;;;;;14.13;6.93;;;;;;;10.69;100.00;102080.41;6243866;23;20030;-78
2023/06/08 01:42:36;;;;;;;9.68;5.82;;;;;;;10.68;100.00;102074.22;6244521;23;20467;-81
2023/06/08 01:45:28;;;;;;;12.05;6.55;;;;;;;10.72;100.00;102078.53;6236954;23;20031;-77
2023/06/08 01:48:13;;;;;;;10.55;6.40;;;;;;;10.73;100.00;102080.28;6243295;23;20479;-78
2023/06/08 01:50:58;;;;;;;13.88;5.97;;;;;;;10.79;100.00;102078.38;6243661;23;20107;-80
2023/06/08 01:53:42;;;;;;;11.65;5.88;;;;;;;10.77;100.00;102066.94;6243766;23;20027;-78
2023/06/08 01:56:33;;;;;;;12.63;5.80;;;;;;;10.76;100.00;102078.44;6244042;23;20125;-79
2023/06/08 01:59:17;;;;;;;8.45;5.55;;;;;;;10.76;100.00;102076.66;6242336;23;20483;-80
2023/06/08 02:02:01;;;;;;;11.65;5.93;;;;;;;10.76;100.00;102074.03;6244150;23;20030;-82
2023/06/08 02:04:45;;;;;;;14.57;6.60;;;;;;;10.76;100.00;102073.13;6223345;23;20019;-78
2023/06/08 02:07:29;;;;;;;13.25;6.45;;;;;;;10.74;100.00;102075.84;6245729;23;20026;-79
2023/06/08 02:10:13;;;;;;;13.40;6.78;;;;;;;10.76;100.00;102073.13;6223230;23;20313;-79
2023/06/08 02:12:57;;;;;;;11.02;6.25;;;;;;;10.76;100.00;102074.03;6245904;23;20026;-79
2023/06/08 02:15:41;;;;;;;10.68;5.75;;;;;;;10.77;100.00;102072.22;6235421;23;20466;-78
2023/06/08 02:18:25;;;;;;;9.68;5.55;;;;;;;10.78;100.00;102068.69;6234428;23;20030;-81
2023/06/08 02:21:09;;;;;;;14.48;5.68;;;;;;;10.76;100.00;102068.72;6245703;23;20086;-79
2023/06/08 02:23:53;;;;;;;8.70;5.13;;;;;;;10.78;100.00;102071.34;6223039;23;20031;-80
2023/06/08 02:26:37;;;;;;;9.82;5.07;;;;;;;10.78;100.00;102069.53;6244671;23;20784;-79
2023/06/08 02:29:22;;;;;;;13.70;5.90;;;;;;;10.80;100.00;102074.81;6244972;23;20130;-77
2023/06/08 02:32:06;;;;;;;11.70;5.90;;;;;;;10.82;100.00;102068.56;6243838;23;20015;-78
2023/06/08 02:34:55;;;;;;;9.90;5.78;;;;;;;10.82;100.00;102068.56;6235606;23;20027;-78
2023/06/08 02:37:39;;;;;;;12.25;5.85;;;;;;;10.82;100.00;102065.91;6232100;23;20110;-80
2023/06/08 02:40:23;;;;;;;12.57;6.05;;;;;;;10.85;100.00;102072.91;6233084;23;20089;-78
2023/06/08 02:43:08;;;;;;;9.13;5.95;;;;;;;10.82;100.00;102062.38;6242858;23;20019;-79
2023/06/08 02:45:52;;;;;;;10.50;5.68;;;;;;;10.83;100.00;102070.28;6234939;23;20101;-82
2023/06/08 02:48:36;;;;;;;10.20;5.55;;;;;;;10.83;100.00;102066.75;6244091;23;20501;-79
2023/06/08 02:51:20;;;;;;;10.90;5.97;;;;;;;10.84;100.00;102063.22;6243491;23;20031;-80
2023/06/08 02:54:04;;;;;;;11.00;6.35;;;;;;;10.84;100.00;102061.44;6243709;23;20399;-79
2023/06/08 02:56:48;;;;;;;14.25;6.13;;;;;;;10.86;100.00;102067.53;6242847;23;20063;-79
2023/06/08 02:59:33;;;;;;;12.43;6.78;;;;;;;10.88;100.00;102070.16;6243614;23;20400;-79
2023/06/08 03:02:17;;;;;;;8.20;5.40;;;;;;;10.91;100.00;102066.56;6242122;23;20078;-80
2023/06/08 03:05:04;;;;;;;9.70;5.30;;;;;;;10.91;100.00;102064.81;6232480;23;20603;-79
2023/06/08 03:07:48;;;;;;;10.02;5.35;;;;;;;10.92;100.00;102073.59;6243273;23;20065;-79
2023/06/08 03:10:32;;;;;;;7.72;5.00;;;;;;;10.94;100.00;102066.47;6242673;23;20015;-79
2023/06/08 03:13:16;;;;;;;11.20;5.40;;;;;;;10.94;100.00;102056.75;6232810;23;20111;-79
2023/06/08 03:15:59;;;;;;;9.13;5.18;;;;;;;10.96;100.00;102065.53;6233023;23;20386;-79
2023/06/08 03:18:44;;;;;;;13.95;5.57;;;;;;;10.93;100.00;102060.31;6230340;23;20030;-81
2023/06/08 03:21:28;;;;;;;11.93;6.22;;;;;;;10.92;100.00;102063.00;6241959;23;20742;-79
2023/06/08 03:24:14;;;;;;;8.63;5.20;;;;;;;10.93;100.00;102055.03;6242428;23;20854;-79
2023/06/08 03:27:00;;;;;;;12.40;5.50;;;;;;;10.95;100.00;102052.34;6242742;23;20213;-78
2023/06/08 03:29:45;;;;;;;11.10;5.50;;;;;;;10.93;100.00;102060.31;6234768;23;20565;-80
2023/06/08 03:32:29;;;;;;;10.23;5.93;;;;;;;10.94;100.00;102059.41;6222151;23;20078;-79
2023/06/08 03:35:13;;;;;;;11.27;5.88;;;;;;;10.96;100.00;102054.06;6243614;23;20835;-80
2023/06/08 03:37:57;;;;;;;10.73;5.80;;;;;;;10.98;100.00;102055.78;6242680;23;20018;-79
2023/06/08 03:40:41;;;;;;;16.80;6.03;;;;;;;11.02;100.00;102055.66;6219931;23;20098;-81
2023/06/08 03:43:25;;;;;;;9.55;5.82;;;;;;;11.00;100.00;102048.63;6232256;23;20607;-79
2023/06/08 03:46:09;;;;;;;12.60;6.43;;;;;;;11.00;100.00;102045.97;6234243;23;20131;-79
2023/06/08 03:48:53;;;;;;;12.40;5.15;;;;;;;11.00;100.00;102042.44;6219513;23;20022;-80
2023/06/08 03:51:37;;;;;;;11.45;5.25;;;;;;;11.03;100.00;102046.81;6243770;23;20121;-79
2023/06/08 03:54:21;;;;;;;10.27;4.78;;;;;;;11.02;100.00;102045.06;6242699;23;20019;-78
2023/06/08 03:57:06;;;;;;;9.30;5.40;;;;;;;11.03;100.00;102044.16;6242562;23;20480;-79
2023/06/08 03:59:50;;;;;;;11.20;4.75;;;;;;;11.05;100.00;102047.66;6242737;23;20395;-79
2023/06/08 04:02:34;;;;;;;8.65;4.65;;;;;;;11.07;100.00;102040.50;6243835;23;20051;-80
2023/06/08 04:05:17;;;;;;;8.82;4.70;;;;;;;11.08;100.00;102036.94;6244795;23;20022;-80
2023/06/08 04:08:02;;;;;;;11.10;4.80;;;;;;;11.11;100.00;102042.19;6245019;23;20054;-79
2023/06/08 04:10:45;;;;;;;8.93;4.45;;;;;;;11.13;100.00;102037.69;6244043;23;20438;-80
2023/06/08 04:13:30;;;;;;;10.02;4.22;;;;;;;11.14;100.00;102042.06;6244392;23;20161;-80
2023/06/08 04:16:15;;;;;;;7.47;4.45;;;;;;;11.14;100.00;102045.59;6234204;23;20083;-79
2023/06/08 04:18:58;;;;;;;8.40;4.38;;;;;;;11.17;100.00;102039.31;6234786;23;20082;-80
2023/06/08 04:21:42;;;;;;;10.07;4.90;;;;;;;11.22;100.00;102034.75;6244490;23;20760;-81
2023/06/08 04:24:29;;;;;;;7.28;4.32;;;;;;;11.23;100.00;102040.94;6244436;23;20084;-80
2023/06/08 04:27:13;;;;;;;10.65;4.32;;;;;;;11.24;100.00;102034.72;6244081;23;20035;-79
2023/06/08 04:29:58;;;;;;;9.80;4.55;;;;;;;11.24;100.00;102024.13;6232506;23;20031;-80
2023/06/08 04:32:42;;;;;;;11.05;4.57;;;;;;;11.27;100.00;102029.31;6244038;23;20019;-81
2023/06/08 04:35:26;;;;;;;8.77;4.43;;;;;;;11.29;100.00;102035.47;6242954;23;20108;-78
2023/06/08 04:38:14;;;;;;;8.93;4.22;;;;;;;11.33;100.00;102033.59;6242503;23;20073;-79
2023/06/08 04:41:01;;;;;;;8.38;4.13;;;;;;;11.38;100.00;102044.91;6232390;23;20098;-80
2023/06/08 04:43:45;;;;;;;8.57;4.10;;;;;;;11.38;100.00;102044.91;6232100;23;20015;-79
2023/06/08 04:46:30;;;;;;;8.10;4.40;;;;;;;11.39;100.00;102041.38;6231831;23;20051;-78
2023/06/08 04:49:16;;;;;;;8.80;4.20;;;;;;;11.40;100.00;102048.41;6219726;23;20533;-81
2023/06/08 04:52:00;;;;;;;11.40;4.20;;;;;;;11.39;100.00;102046.66;6209748;23;20425;-79
2023/06/08 04:54:46;;;;;;;10.40;4.43;;;;;;;11.44;100.00;102050.03;6218983;23;20015;-80
2023/06/08 04:57:30;;;;;;;7.15;3.80;;;;;;;11.48;100.00;102046.38;6243853;23;20059;-80
2023/06/08 05:00:15;;;;;;;8.40;4.13;;;;;;;11.51;100.00;102042.78;6242149;23;20019;-80
2023/06/08 05:02:59;;;;;;;10.95;4.18;;;;;;;11.55;100.00;102034.69;6232323;23;20475;-81
2023/06/08 05:05:43;;;;;;;9.18;3.78;;;;;;;11.55;100.00;102031.13;6218900;23;20521;-80
2023/06/08 05:08:27;;;;;;;9.52;4.18;;;;;;;11.57;100.00;102033.75;6242948;23;20023;-80
2023/06/08 05:11:12;;;;;;;9.13;3.80;;;;;;;11.59;100.00;102026.63;6231061;23;20428;-79
2023/06/08 05:13:56;;;;;;;9.57;3.53;;;;;;;11.62;100.00;102031.84;6219086;23;20178;-81
2023/06/08 05:16:40;;;;;;;9.35;4.15;;;;;;;11.70;100.00;102029.81;6242085;23;20851;-80
2023/06/08 05:19:24;;;;;;;7.78;4.05;;;;;;;11.76;100.00;102029.63;6241621;23;20439;-79
2023/06/08 05:22:07;;;;;;;6.15;3.90;;;;;;;11.82;100.00;102037.38;6218376;23;20042;-80
2023/06/08 05:24:52;;;;;;;11.55;4.45;;;;;;;11.87;100.00;102031.06;6241504;23;20030;-79
2023/06/08 05:27:37;;;;;;;7.25;4.00;;;;;;;11.95;100.00;102023.72;6220436;23;20374;-81
2023/06/08 05:30:21;;;;;;;9.15;4.40;;;;;;;11.96;100.00;102036.06;6244226;23;20094;-79
2023/06/08 05:33:05;;;;;;;12.68;4.22;;;;;;;11.99;100.00;102040.41;6244439;23;20519;-80
2023/06/08 05:35:49;;;;;;;10.25;4.38;;;;;;;12.06;100.00;102039.34;6242393;23;20030;-79
2023/06/08 05:38:33;;;;;;;9.18;4.45;;;;;;;12.14;100.00;102041.75;6232221;23;20019;-79
2023/06/08 05:41:17;;;;;;;8.00;4.65;;;;;;;12.15;100.00;102040.81;6244141;23;20031;-80
2023/06/08 05:44:01;;;;;;;7.57;3.83;;;;;;;12.12;100.00;102035.59;6242857;23;20065;-82
2023/06/08 05:46:45;;;;;;;12.38;4.47;;;;;;;12.12;100.00;102039.13;6244815;23;20026;-81
2023/06/08 05:49:29;;;;;;;7.30;4.15;;;;;;;12.17;100.00;102036.31;6231903;23;20079;-81
2023/06/08 05:52:13;;;;;;;9.35;4.30;;;;;;;12.22;100.00;102037.03;6211373;23;20469;-79
2023/06/08 05:54:57;;;;;;;10.00;4.10;;;;;;;12.33;100.00;102037.53;6244522;23;20086;-81
2023/06/08 05:57:42;;;;;;;8.98;4.40;;;;;;;12.47;100.00;102044.16;6244590;23;20439;-82
2023/06/08 06:00:26;;;;;;;7.70;4.07;;;;;;;12.51;100.00;102040.50;6232323;23;20022;-80
2023/06/08 06:03:10;;;;;;;8.27;3.55;;;;;;;12.57;100.00;102042.94;6246558;23;20570;-79
2023/06/08 06:05:54;;;;;;;9.27;3.97;;;;;;;12.65;100.00;102049.75;6213127;23;20716;-79
2023/06/08 06:08:38;;;;;;;7.35;3.63;;;;;;;12.68;100.00;102045.22;6245576;23;20077;-78
2023/06/08 06:11:22;;;;;;;9.35;3.75;;;;;;;12.73;100.00;102037.06;6222765;23;20030;-79
2023/06/08 06:14:06;;;;;;;8.23;3.95;;;;;;;12.74;100.00;102036.16;6244759;23;20499;-79
2023/06/08 06:16:50;;;;;;;9.98;4.25;;;;;;;12.83;100.00;102043.81;6245864;23;20019;-80
2023/06/08 06:19:38;;;;;;;7.07;3.65;;;;;;;12.87;100.00;102039.25;6245260;23;20368;-79
2023/06/08 06:22:22;;;;;;;7.78;3.78;;;;;;;12.89;100.00;102029.41;6222561;23;20096;-79
2023/06/08 06:25:06;;;;;;;8.45;3.65;;;;;;;12.89;100.00;102027.66;6245553;23;20127;-80
2023/06/08 06:27:50;;;;;;;6.85;3.55;;;;;;;12.90;100.00;102029.38;6235306;23;20390;-78
2023/06/08 06:30:35;;;;;;;10.25;4.00;;;;;;;12.90;100.00;102024.06;6244473;23;20027;-79
2023/06/08 06:33:19;;;;;;;6.32;3.90;;;;;;;12.94;100.00;102029.25;6221699;23;20018;-80
2023/06/08 06:36:03;;;;;;;8.68;3.83;;;;;;;13.02;100.00;102022.72;6242930;23;20039;-79
2023/06/08 06:38:49;;;;;;;6.80;3.42;;;;;;;13.23;100.00;102024.66;6231259;23;20051;-79
2023/06/08 06:41:33;;;;;;;6.72;3.67;;;;;;;13.40;100.00;102027.53;6243240;23;20022;-80
2023/06/08 06:44:17;;;;;;;9.52;3.70;;;;;;;13.56;100.00;102026.94;6210140;23;20019;-78
2023/06/08 06:47:01;;;;;;;8.10;4.20;;;;;;;13.73;100.00;102028.09;6243736;23;20788;-80
2023/06/08 06:49:45;;;;;;;7.25;3.67;;;;;;;13.93;100.00;102028.16;6242960;23;20078;-78
2023/06/08 06:52:29;;;;;;;7.22;3.33;;;;;;;14.03;100.00;102035.75;6231526;23;20435;-79
2023/06/08 06:55:14;;;;;;;8.35;3.60;;;;;;;14.15;100.00;102029.91;6243216;23;20164;-79
2023/06/08 06:58:00;;;;;;;7.50;2.92;;;;;;;14.41;100.00;102025.28;6233598;23;20102;-80
2023/06/08 07:00:44;;;;;;;7.15;3.33;;;;;;;14.55;100.00;102024.72;6243353;23;20019;-79
2023/06/08 07:03:29;;;;;;;7.47;3.80;;;;;;;14.65;100.00;102025.16;6234170;23;20082;-78
2023/06/08 07:06:13;;;;;;;8.63;3.20;;;;;;;14.82;100.00;102023.59;6221049;23;20089;-79
2023/06/08 07:08:57;;;;;;;8.80;3.53;;;;;;;14.90;100.00;102024.09;6243250;23;20022;-82
2023/06/08 07:11:41;;;;;;;8.65;3.40;;;;;;;15.06;100.00;102030.47;6232946;23;20607;-80
2023/06/08 07:14:25;;;;;;;8.65;3.25;;;;;;;15.21;100.00;102020.03;6242053;23;20030;-76
2023/06/08 07:17:11;;;;;;;9.45;3.20;;;;;;;15.30;100.00;102018.72;6244646;23;20019;-83
2023/06/08 07:19:57;;;;;;;6.38;3.00;;;;;;;15.37;100.00;102025.53;6222335;23;20111;-83
2023/06/08 07:22:41;;;;;;;9.15;3.08;;;;;;;15.45;100.00;102020.69;6212042;23;20074;-82
2023/06/08 07:25:25;;;;;;;7.78;3.28;;;;;;;15.59;100.00;102022.69;6243430;23;20518;-83
2023/06/08 07:28:09;;;;;;;6.47;3.22;;;;;;;15.71;100.00;102031.03;6243702;23;20062;-83
2023/06/08 07:30:53;;;;;;;7.78;3.03;;;;;;;15.67;100.00;102022.31;6242695;23;20035;-83
2023/06/08 07:33:37;;;;;;;9.63;3.30;;;;;;;15.74;100.00;102026.41;6242965;23;20019;-85
2023/06/08 07:36:22;;;;;;;5.30;2.80;;;;;;;15.78;100.00;102018.25;6200220;23;20026;-84
2023/06/08 07:39:06;;;;;;;8.85;3.35;;;;;;;15.92;100.00;102017.63;6242873;23;20038;-84
2023/06/08 07:41:50;;;;;;;8.00;3.33;;;;;;;16.09;100.00;102028.34;6222362;23;20030;-81
2023/06/08 07:44:34;;;;;;;6.55;2.95;;;;;;;16.23;100.00;102029.44;6242019;23;20019;-81
2023/06/08 07:47:18;;;;;;;7.22;3.40;;;;;;;16.33;100.00;102024.50;6245236;23;20027;-82
2023/06/08 07:50:02;;;;;;;7.40;3.25;;;;;;;16.38;100.00;102025.97;6232638;23;20027;-78
2023/06/08 07:52:46;;;;;;;6.38;3.40;;;;;;;16.47;100.00;102027.31;6243687;23;20035;-80
2023/06/08 07:55:29;;;;;;;8.27;3.10;;;;;;;16.58;100.00;102033.91;6244173;23;20024;-80
2023/06/08 07:58:13;;;;;;;5.32;3.13;;;;;;;16.59;100.00;102028.47;6242741;23;20095;-82
2023/06/08 08:00:58;;;;;;;6.55;3.00;;;;;;;16.70;100.00;102027.91;6227698;23;20015;-81
2023/06/08 08:03:42;;;;;;;7.88;3.10;;;;;;;16.86;100.00;102021.75;6241738;23;20051;-82
2023/06/08 08:06:26;;;;;;;7.47;3.25;;;;;;;17.03;100.00;102029.78;6241762;23;20463;-82
2023/06/08 08:09:10;;;;;;;6.07;3.17;;;;;;;17.13;100.00;102035.47;6241203;23;20031;-81
2023/06/08 08:11:54;;;;;;;8.18;3.05;;;;;;;17.16;100.00;102024.59;6242855;23;20070;-81
2023/06/08 08:14:40;;;;;;;7.15;3.08;;;;;;;17.26;100.00;102027.63;6208640;23;20059;-81
2023/06/08 08:17:24;;;;;;;4.65;2.72;;;;;;;17.34;100.00;102020.03;6242674;23;20191;-80
2023/06/08 08:20:09;;;;;;;5.80;2.97;;;;;;;17.39;100.00;102017.13;6231061;23;20812;-80
2023/06/08 08:22:53;;;;;;;6.13;2.90;;;;;;;17.45;100.00;102014.13;6243140;23;20038;-79
2023/06/08 08:25:37;;;;;;;6.22;2.70;;;;;;;17.46;100.00;102007.81;6243484;23;20548;-79
2023/06/08 08:28:21;;;;;;;5.72;2.63;;;;;;;17.56;100.00;102013.50;6241870;23;20019;-80
2023/06/08 08:31:05;;;;;;;6.03;3.10;;;;;;;17.56;100.00;102015.31;6242466;23;20142;-80
2023/06/08 08:33:49;;;;;;;7.10;2.85;;;;;;;17.58;99.03;102019.63;6242118;23;20486;-87
2023/06/08 08:36:33;;;;;;;6.03;2.88;;;;;;;17.62;99.70;102014.97;6230409;23;20057;-85
2023/06/08 08:39:17;;;;;;;6.38;3.08;;;;;;;17.72;99.53;102009.94;6231413;23;20015;-82
2023/06/08 08:42:03;;;;;;;8.80;2.95;;;;;;;17.73;99.54;102017.91;6242454;23;20027;-82
2023/06/08 08:44:49;;;;;;;7.05;3.13;;;;;;;17.74;99.71;102022.28;6232715;23;20082;-84
2023/06/08 08:47:33;;;;;;;6.10;2.70;;;;;;;17.73;97.54;102022.38;6190333;23;20788;-87
2023/06/08 08:50:17;;;;;;;6.22;2.65;;;;;;;17.76;99.32;102017.69;6244001;23;20031;-82
2023/06/08 08:53:01;;;;;;;7.55;2.88;;;;;;;17.82;99.92;102018.31;6232534;23;20031;-83
2023/06/08 08:55:48;;;;;;;6.60;2.75;;;;;;;17.80;99.21;102015.72;6210643;23;20069;-83
2023/06/08 08:58:33;;;;;;;6.60;3.13;;;;;;;17.90;99.68;102013.38;6244059;23;20062;-82
2023/06/08 09:01:18;;;;;;;6.47;2.67;;;;;;;17.99;98.85;102012.84;6243787;23;20086;-83
2023/06/08 09:04:03;;;;;;;7.05;2.90;;;;;;;18.09;97.97;102015.00;6220268;23;20074;-83
2023/06/08 09:06:51;;;;;;;4.55;3.05;;;;;;;17.99;93.59;102014.66;6221302;23;20094;-87
2023/06/08 09:09:35;;;;;;;4.32;2.90;;;;;;;17.96;98.43;102010.34;6239995;23;20024;-82
2023/06/08 09:12:19;;;;;;;6.47;3.50;;;;;;;18.10;97.16;102011.38;6220691;23;20035;-80
2023/06/08 09:15:05;;;;;;;4.60;2.83;;;;;;;18.16;98.67;102013.69;6218073;23;20027;-83
2023/06/08 09:17:50;;;;;;;4.78;2.75;;;;;;;18.32;96.54;102011.81;6244390;23;20030;-84
2023/06/08 09:20:34;;;;;;;6.07;2.85;;;;;;;18.35;96.59;102012.59;6243573;23;20106;-83
2023/06/08 09:23:24;;;;;;;4.65;2.75;;;;;;;18.47;95.30;102006.50;6243465;23;20015;-83
2023/06/08 09:26:09;;;;;;;5.70;3.00;;;;;;;18.49;93.40;102009.94;6189690;23;20042;-83
2023/06/08 09:28:53;;;;;;;7.13;3.08;;;;;;;18.51;92.98;102015.22;6234713;23;20076;-87
2023/06/08 09:31:48;;;;;;;6.70;3.13;;;;;;;18.52;89.48;102017.78;6244114;23;20031;-84
2023/06/08 09:34:50;;;;;;;5.57;3.40;;;;;;;18.67;89.90;102024.03;6219482;23;20121;-84
2023/06/08 09:37:36;;;;;;;5.80;2.97;;;;;;;18.56;89.49;102021.13;6243532;23;20080;-84
2023/06/08 09:40:21;;;;;;;8.38;3.00;;;;;;;18.53;90.92;102016.81;6233164;23;20087;-85
2023/06/08 09:43:05;;;;;;;6.55;2.85;;;;;;;18.59;90.27;102024.50;6243403;23;20100;-86
2023/06/08 09:45:49;;;;;;;10.57;3.20;;;;;;;18.64;90.15;102015.31;6212334;23;20463;-82
2023/06/08 09:48:33;;;;;;;4.70;3.10;;;;;;;18.63;88.11;102010.91;6232640;23;20058;-82
2023/06/08 09:51:17;;;;;;;5.00;2.95;;;;;;;18.51;88.42;102005.34;6243648;23;20086;-83
2023/06/08 09:54:01;;;;;;;6.80;3.05;;;;;;;18.42;88.84;102005.91;6218742;23;20498;-76
2023/06/08 09:56:55;;;;;;;5.50;2.85;;;;;;;18.36;89.17;102009.81;6242469;23;20467;-77
2023/06/08 09:59:45;;;;;;;4.45;2.90;;;;;;;18.26;89.30;102014.00;6221424;23;20491;-79
2023/06/08 10:02:33;;;;;;;8.30;3.15;;;;;;;18.25;89.37;102013.13;6212820;23;20550;-80
2023/06/08 10:05:20;;;;;;;7.43;2.90;;;;;;;18.23;89.79;102003.44;6222588;23;20476;-78
2023/06/08 10:08:05;;;;;;;4.80;3.10;;;;;;;18.23;89.38;102009.69;6223033;23;20134;-80
2023/06/08 10:10:50;;;;;;;5.07;2.60;;;;;;;18.26;89.48;102003.28;6191123;23;20031;-79
2023/06/08 10:13:34;;;;;;;5.55;2.42;;;;;;;18.28;89.91;102004.03;6212258;23;20015;-79
2023/06/08 10:16:19;;;;;;;4.68;2.60;;;;;;;18.30;89.79;101989.59;6212942;23;20117;-79
2023/06/08 10:19:03;;;;;;;5.75;2.60;;;;;;;18.39;89.84;102000.72;6221654;23;20019;-80
2023/06/08 10:21:49;;;;;;;4.68;2.47;;;;;;;18.48;89.38;102002.84;6234998;23;20515;-81
2023/06/08 10:24:33;;;;;;;6.43;2.85;;;;;;;18.46;89.31;102002.94;6221553;23;20069;-80
2023/06/08 10:27:28;;;;;;;5.53;2.75;;;;;;;18.55;89.25;102000.66;6212025;23;20027;-81
2023/06/08 10:30:26;;;;;;;5.95;2.53;;;;;;;18.41;88.22;101998.81;6234303;23;20089;-80
2023/06/08 10:33:15;;;;;;;5.53;2.90;;;;;;;18.24;88.25;101995.31;6232740;23;20467;-79
2023/06/08 10:36:07;;;;;;;6.00;2.92;;;;;;;18.28;89.31;101991.53;6244129;23;20019;-80
2023/06/08 10:38:54;;;;;;;7.45;3.40;;;;;;;18.37;89.75;101999.97;6211449;23;20082;-80
2023/06/08 10:41:57;;;;;;;4.30;2.75;;;;;;;18.28;88.60;101991.53;6234748;23;20450;-79
2023/06/08 10:44:41;;;;;;;;;;;;;;;18.17;85.67;101999.34;6242057;23;20027;-81
2023/06/08 10:47:26;;;;;;;4.82;2.22;;;;;;;18.03;87.56;101994.78;6246139;23;20402;-81
2023/06/08 10:50:10;;;;;;;5.75;3.08;;;;;;;18.11;88.95;101986.28;6245391;23;20438;-81
2023/06/08 10:52:58;;;;;;;6.22;3.10;;;;;;;18.11;88.58;101997.00;6233428;23;20439;-81
2023/06/08 10:55:46;;;;;;;5.45;2.75;;;;;;;18.03;88.68;101987.59;6243722;23;20070;-80
2023/06/08 10:58:50;;;;;;;6.00;2.78;;;;;;;18.14;89.04;101994.16;6245422;23;20015;-80
2023/06/08 11:01:35;;;;;;;6.63;3.00;;;;;;;18.24;89.29;102000.69;6221659;23;20582;-80
2023/06/08 11:04:20;;;;;;;4.20;2.83;;;;;;;18.37;89.96;101986.56;6210759;23;20081;-80
2023/06/08 11:07:05;;;;;;;4.82;2.58;;;;;;;18.41;88.04;101985.41;6244649;23;20031;-80
2023/06/08 11:09:48;;;;;;;5.65;3.40;;;;;;;18.39;88.45;101992.66;6211604;23;20120;-80
2023/06/08 11:12:32;;;;;;;5.85;3.33;;;;;;;18.40;89.57;101989.03;6241481;23;20630;-80
2023/06/08 11:15:19;;;;;;;7.95;3.22;;;;;;;18.45;88.11;101992.31;6234283;23;20483;-78
2023/06/08 11:18:04;;;;;;;7.20;3.70;;;;;;;18.50;89.03;101990.22;6220967;23;20059;-80
2023/06/08 11:20:48;;;;;;;6.90;3.38;;;;;;;18.56;89.46;101991.66;6190004;23;20457;-79
2023/06/08 11:23:36;;;;;;;6.40;3.42;;;;;;;18.54;88.63;101985.53;6242644;23;20081;-79
2023/06/08 11:26:23;;;;;;;8.70;3.55;;;;;;;18.48;88.15;101988.56;6241979;23;20089;-79
2023/06/08 11:29:07;;;;;;;7.55;3.42;;;;;;;18.50;88.47;101978.59;6230780;23;20050;-81
2023/06/08 11:31:51;;;;;;;6.78;3.80;;;;;;;18.48;88.82;101981.41;6242827;23;20019;-81
2023/06/08 11:34:37;;;;;;;5.90;3.58;;;;;;;18.49;88.62;101977.75;6243615;23;20107;-80
2023/06/08 11:37:21;;;;;;;7.50;3.22;;;;;;;18.52;87.05;101982.09;6210940;23;20550;-82
2023/06/08 11:40:12;;;;;;;6.80;2.92;;;;;;;18.44;88.06;101979.84;6244036;23;20027;-80
2023/06/08 11:42:56;;;;;;;4.60;2.85;;;;;;;18.51;89.69;101980.38;6232384;23;20011;-81
2023/06/08 11:45:40;;;;;;;9.85;3.08;;;;;;;18.59;89.58;101978.06;6211393;23;20360;-80
2023/06/08 11:48:24;;;;;;;4.75;2.65;;;;;;;18.61;88.88;101976.13;6242708;23;20490;-79
2023/06/08 11:51:08;;;;;;;8.82;3.70;;;;;;;18.58;87.00;101971.81;6242940;23;20035;-80
2023/06/08 11:53:53;;;;;;;7.28;2.65;;;;;;;18.42;87.24;101966.53;6234235;23;20039;-80
2023/06/08 11:56:36;;;;;;;7.03;3.47;;;;;;;18.43;87.68;101957.53;6242753;23;20085;-74
2023/06/08 11:59:24;;;;;;;7.97;3.20;;;;;;;18.44;86.40;101958.41;6232462;23;20459;-74
2023/06/08 12:02:10;;;;;;;6.00;3.03;;;;;;;18.38;87.06;101965.03;6219834;23;20027;-75
2023/06/08 12:04:58;;;;;;;6.88;3.13;;;;;;;18.41;86.15;101961.28;6232449;23;20015;-74
2023/06/08 12:08:17;;;;;;;5.00;2.85;;;;;;;18.51;86.01;101964.28;6244301;23;20031;-75
2023/06/08 12:11:09;;;;;;;4.78;2.65;;;;;;;18.59;83.58;101956.63;6221638;23;20482;-75
2023/06/08 12:13:54;;;;;;;5.03;2.75;;;;;;;18.48;85.96;101954.59;6220325;23;20165;-75
2023/06/08 12:16:44;;;;;;;8.32;2.40;;;;;;;18.58;86.89;101950.38;6243460;23;20081;-75
2023/06/08 12:19:31;;;;;;;6.65;2.50;;;;;;;18.63;86.48;101963.50;6232984;23;20286;-75
2023/06/08 12:22:15;;;;;;;4.85;2.35;;;;;;;18.62;86.62;101951.03;6243457;23;20039;-74
2023/06/08 12:25:00;;;;;;;4.68;2.60;;;;;;;18.62;85.50;101950.19;6231386;23;20109;-75
2023/06/08 12:27:45;;;;;;;5.72;2.88;;;;;;;18.53;85.96;101957.84;6241253;23;20101;-75
2023/06/08 12:30:30;;;;;;;5.22;2.47;;;;;;;18.50;87.03;101952.69;6218732;23;20202;-79
2023/06/08 12:33:17;;;;;;;7.78;3.17;;;;;;;18.51;86.06;101957.06;6231104;23;20019;-82
2023/06/08 12:36:01;;;;;;;5.35;2.97;;;;;;;18.55;87.57;101947.03;6243258;23;20115;-81
2023/06/08 12:38:45;;;;;;;7.75;2.83;;;;;;;18.53;85.62;101941.75;6210693;23;20411;-83
2023/06/08 12:41:29;;;;;;;5.18;2.50;;;;;;;18.44;86.40;101936.97;6220208;23;20036;-84